Samish Island, Washington
Current Conditions -  °F | °C
As of 5:10 PM on Monday 20 Oct 2014 (Local Time) from KBLI Reporting Station
Light Rain Light Rain  
Wind Chill: 61°   Ceiling: 2900
Heat Index: 61°   Visibility: 9mi
Dew Point: 52°   Wind: 13mph
Humidity: 72%   Direction: 150°SSE
Pressure: 29.72"   Gusts: NA
Location:  48.5689°N, 122.407°W
Report Text: KBLI 210010Z 15011KT 9SM -RA BKN029 BKN035 OVC049 16/11 A2972 RMK AO2 RAB07 P0001
Loading
Personal Weather Stations






























Interactive Weather Map
Tropical Storm Tracking
New forecast layout! Learn more

10-Day Weather Forecast

Advertisements
Track Severe Weather on mobile